Time;durP1;ratioP1;P1;durP2;ratioP2;P2;SDS_P1;SDS_P2;PMS_P1;PMS_P2;Temp;Humidity;BMP_temperature;BMP_pressure;BME280_temperature;BME280_humidity;BME280_pressure;Samples;Min_cycle;Max_cycle;Signal;HPM_P1;HPM_P2
2022/11/06 00:00:14;;;;;;;5.12;2.28;;;10.40;71.90;;;;;;2194754;59;21677;-79
2022/11/06 00:02:42;;;;;;;4.70;2.65;;;10.40;71.90;;;;;;2363132;55;21171;-79
2022/11/06 00:07:53;;;;;;;3.42;1.90;;;10.40;72.00;;;;;;2135832;59;21554;-79
2022/11/06 00:10:21;;;;;;;4.25;2.20;;;10.40;71.90;;;;;;2135626;57;21783;-78
2022/11/06 00:12:48;;;;;;;4.07;2.20;;;10.50;71.80;;;;;;2226376;55;21135;-79
2022/11/06 00:15:14;;;;;;;3.78;2.03;;;10.50;71.80;;;;;;2193844;55;21666;-79
2022/11/06 00:17:41;;;;;;;3.50;1.75;;;10.50;71.70;;;;;;2210223;55;22465;-78
2022/11/06 00:20:08;;;;;;;4.25;1.90;;;10.50;71.60;;;;;;2170395;59;21203;-79
2022/11/06 00:22:36;;;;;;;6.30;1.85;;;10.50;71.70;;;;;;2183506;54;21084;-79
2022/11/06 00:25:04;;;;;;;4.82;2.28;;;10.50;71.70;;;;;;2194219;55;21408;-78
2022/11/06 00:27:31;;;;;;;3.70;1.80;;;10.50;71.70;;;;;;2190029;55;22312;-78
2022/11/06 00:29:57;;;;;;;3.22;1.70;;;10.50;71.70;;;;;;2186279;59;21188;-79
2022/11/06 00:32:24;;;;;;;2.80;1.70;;;10.50;71.70;;;;;;2278165;55;21762;-79
2022/11/06 00:34:52;;;;;;;4.03;1.77;;;10.50;71.70;;;;;;2192623;59;22373;-78
2022/11/06 00:37:18;;;;;;;3.97;1.70;;;10.50;71.60;;;;;;2224669;55;22277;-79
2022/11/06 00:39:45;;;;;;;3.10;1.60;;;10.50;71.50;;;;;;2431345;55;22158;-79
2022/11/06 00:42:12;;;;;;;4.80;2.00;;;10.50;71.40;;;;;;2309887;55;21763;-79
2022/11/06 00:44:39;;;;;;;4.05;2.20;;;10.50;71.40;;;;;;2449808;55;21076;-79
2022/11/06 00:47:05;;;;;;;4.15;2.30;;;10.50;71.40;;;;;;2282199;55;21183;-79
2022/11/06 00:49:32;;;;;;;4.72;1.73;;;10.50;71.50;;;;;;2234074;55;21175;-79
2022/11/06 00:51:59;;;;;;;2.65;1.37;;;10.50;71.60;;;;;;2258409;55;21047;-79
2022/11/06 00:54:26;;;;;;;4.80;2.17;;;10.50;71.60;;;;;;2482406;55;21227;-79
2022/11/06 00:56:53;;;;;;;4.40;1.60;;;10.50;71.80;;;;;;2491744;55;21167;-79
2022/11/06 00:59:20;;;;;;;3.70;1.80;;;10.40;71.60;;;;;;2268230;55;21725;-79
2022/11/06 01:01:46;;;;;;;3.67;1.85;;;10.40;71.60;;;;;;2443275;55;21139;-79
2022/11/06 01:04:15;;;;;;;4.12;2.15;;;10.40;71.60;;;;;;2305425;55;21076;-79
2022/11/06 01:06:44;;;;;;;3.72;1.90;;;10.40;71.60;;;;;;2330028;55;21120;-79
2022/11/06 01:09:13;;;;;;;3.30;1.62;;;10.40;71.60;;;;;;2260687;59;21127;-79
2022/11/06 01:11:41;;;;;;;3.17;1.65;;;10.40;71.50;;;;;;2359697;55;21496;-78
2022/11/06 01:14:26;;;;;;;3.72;1.40;;;10.40;71.20;;;;;;2307468;55;21076;-79
2022/11/06 01:16:52;;;;;;;3.67;1.73;;;10.40;71.10;;;;;;2268715;55;21175;-79
2022/11/06 01:19:20;;;;;;;3.58;1.92;;;10.30;70.70;;;;;;2288897;55;21942;-79
2022/11/06 01:21:49;;;;;;;3.92;2.17;;;10.30;70.50;;;;;;2491059;55;21056;-79
2022/11/06 01:24:19;;;;;;;4.35;2.72;;;10.30;70.50;;;;;;2260016;59;21179;-79
2022/11/06 01:26:46;;;;;;;5.18;2.50;;;10.20;70.50;;;;;;2485866;55;21618;-79
2022/11/06 01:29:29;;;;;;;4.40;2.35;;;10.20;70.70;;;;;;2481970;55;22254;-79
2022/11/06 01:31:56;;;;;;;6.78;1.87;;;10.20;70.70;;;;;;2327240;55;21179;-78
2022/11/06 01:34:24;;;;;;;6.18;2.37;;;10.10;70.50;;;;;;2259968;59;21143;-79
2022/11/06 01:36:51;;;;;;;4.37;2.35;;;10.10;70.50;;;;;;2260766;59;21594;-79
2022/11/06 01:39:17;;;;;;;3.80;2.20;;;10.00;70.40;;;;;;2310288;55;21084;-79
2022/11/06 01:41:46;;;;;;;4.80;2.00;;;10.00;70.40;;;;;;2421170;55;21103;-79
2022/11/06 01:51:01;;;;;;;4.57;2.53;;;10.00;70.20;;;;;;2261546;59;21084;-79
2022/11/06 01:53:28;;;;;;;2.15;0.98;;;9.90;70.50;;;;;;2352515;55;22204;-79
2022/11/06 01:55:57;;;;;;;2.87;1.25;;;9.90;71.40;;;;;;2429293;55;21083;-79
2022/11/06 01:58:24;;;;;;;3.37;1.30;;;9.80;71.40;;;;;;2259868;59;21139;-79
2022/11/06 02:00:51;;;;;;;2.72;1.05;;;9.70;71.50;;;;;;2259118;59;21202;-78
2022/11/06 02:03:17;;;;;;;2.50;1.30;;;9.70;71.70;;;;;;2391565;55;21116;-79
2022/11/06 02:05:44;;;;;;;3.15;1.40;;;9.70;71.80;;;;;;2260251;59;21120;-79
2022/11/06 02:08:12;;;;;;;2.45;1.10;;;9.60;71.80;;;;;;2419332;55;21068;-79
2022/11/06 02:10:40;;;;;;;2.45;1.12;;;9.60;71.90;;;;;;2454954;55;22445;-79
2022/11/06 02:13:44;;;;;;;3.62;1.60;;;9.60;72.00;;;;;;2267811;55;21080;-79
2022/11/06 02:16:51;;;;;;;3.78;1.30;;;9.60;71.80;;;;;;2407819;55;21116;-79
2022/11/06 02:22:41;;;;;;;2.78;1.45;;;9.60;72.00;;;;;;2263937;59;21191;-79
2022/11/06 02:25:32;;;;;;;2.03;1.05;;;9.60;71.80;;;;;;2264477;59;21079;-79
2022/11/06 02:28:03;;;;;;;3.97;1.80;;;9.50;72.10;;;;;;2494873;55;21630;-79
2022/11/06 02:30:31;;;;;;;2.35;1.02;;;9.50;72.20;;;;;;2281567;55;21060;-80
2022/11/06 02:33:00;;;;;;;2.80;1.35;;;9.50;72.20;;;;;;2495196;55;21188;-79
2022/11/06 02:35:39;;;;;;;3.08;1.20;;;9.50;72.00;;;;;;2263222;59;22125;-79
2022/11/06 02:38:14;;;;;;;3.37;1.75;;;9.50;71.50;;;;;;2443457;55;21084;-79
2022/11/06 02:40:52;;;;;;;2.92;1.30;;;9.40;71.60;;;;;;2491733;55;21400;-78
2022/11/06 02:43:18;;;;;;;3.37;1.30;;;9.40;71.70;;;;;;2487492;55;22268;-80
2022/11/06 02:45:54;;;;;;;2.90;1.50;;;9.40;71.70;;;;;;2468327;55;21076;-79
2022/11/06 02:48:28;;;;;;;3.33;1.62;;;9.30;71.40;;;;;;2302113;55;21198;-78
2022/11/06 02:50:55;;;;;;;4.12;1.75;;;9.40;71.50;;;;;;2254650;59;21072;-79
2022/11/06 02:53:22;;;;;;;3.55;1.30;;;9.30;71.60;;;;;;2260616;55;21068;-78
2022/11/06 02:55:51;;;;;;;2.85;1.12;;;9.30;71.70;;;;;;2485455;55;22121;-78
2022/11/06 02:58:24;;;;;;;4.75;2.03;;;9.30;71.60;;;;;;2479472;55;22335;-79
2022/11/06 03:01:02;;;;;;;2.78;1.23;;;9.20;71.40;;;;;;2245933;59;21195;-79
2022/11/06 03:03:30;;;;;;;2.30;1.00;;;9.20;71.30;;;;;;2270174;55;21142;-79
2022/11/06 03:06:06;;;;;;;2.20;1.08;;;9.20;71.20;;;;;;2270708;55;22196;-79
2022/11/06 03:09:20;;;;;;;3.70;1.50;;;9.20;71.10;;;;;;2267637;55;21537;-79
2022/11/06 03:11:50;;;;;;;3.53;1.45;;;9.10;70.80;;;;;;2252033;59;22352;-79
2022/11/06 03:14:38;;;;;;;2.78;1.17;;;9.10;71.40;;;;;;2250928;59;21167;-79
2022/11/06 03:19:01;;;;;;;3.05;1.20;;;9.10;71.30;;;;;;2257881;55;21116;-79
2022/11/06 03:23:47;;;;;;;2.60;1.08;;;9.00;71.20;;;;;;2252386;59;21660;-79
2022/11/06 03:26:31;;;;;;;1.87;0.88;;;9.00;70.80;;;;;;2251971;55;21506;-78
2022/11/06 03:29:01;;;;;;;3.53;0.90;;;9.00;71.10;;;;;;2255937;59;22025;-78
2022/11/06 03:31:36;;;;;;;3.00;1.20;;;8.90;71.20;;;;;;2333048;55;21072;-80
2022/11/06 03:34:11;;;;;;;3.05;1.00;;;8.90;71.40;;;;;;2255498;59;21072;-79
2022/11/06 03:36:41;;;;;;;2.87;1.20;;;8.90;71.70;;;;;;2257516;55;21088;-79
2022/11/06 03:39:11;;;;;;;2.72;1.10;;;8.90;71.90;;;;;;2329832;54;21147;-79
2022/11/06 03:41:49;;;;;;;3.53;1.12;;;8.80;72.00;;;;;;2255704;55;21573;-79
2022/11/06 03:44:20;;;;;;;2.42;1.10;;;8.80;72.10;;;;;;2255266;59;21076;-79
2022/11/06 03:46:53;;;;;;;3.83;0.98;;;8.80;72.20;;;;;;2347284;55;21187;-79
2022/11/06 03:49:27;;;;;;;3.40;1.00;;;8.80;72.20;;;;;;2399551;55;21076;-79
2022/11/06 03:52:00;;;;;;;2.40;1.00;;;8.80;72.20;;;;;;2254979;58;22446;-79
2022/11/06 03:54:33;;;;;;;2.00;0.80;;;8.80;72.20;;;;;;2255238;59;22220;-79
2022/11/06 03:57:06;;;;;;;2.20;1.10;;;8.90;72.10;;;;;;2252372;59;21191;-78
2022/11/06 03:59:34;;;;;;;2.30;1.08;;;8.80;72.00;;;;;;2370865;55;21080;-79
2022/11/06 04:02:01;;;;;;;2.08;0.90;;;8.80;72.00;;;;;;2254079;59;21076;-80
2022/11/06 04:04:36;;;;;;;2.90;1.15;;;8.80;72.00;;;;;;2251728;59;21522;-80
2022/11/06 04:07:05;;;;;;;2.17;1.00;;;8.80;71.90;;;;;;2251348;59;21072;-78
2022/11/06 04:15:04;;;;;;;3.47;0.98;;;8.80;71.60;;;;;;2250649;55;21127;-79
2022/11/06 04:17:30;;;;;;;2.83;1.08;;;8.80;71.70;;;;;;2250845;59;21168;-79
2022/11/06 04:19:58;;;;;;;3.15;1.00;;;8.70;72.10;;;;;;2251743;59;21064;-80
2022/11/06 04:22:53;;;;;;;2.50;1.20;;;8.70;71.40;;;;;;2251791;59;21179;-79
2022/11/06 04:26:36;;;;;;;2.90;1.15;;;8.70;71.30;;;;;;2482307;55;21068;-78
2022/11/06 04:29:14;;;;;;;2.10;0.85;;;8.70;71.30;;;;;;2333085;55;21238;-80
2022/11/06 04:32:55;;;;;;;2.58;1.00;;;8.70;71.50;;;;;;2251062;59;21120;-79
2022/11/06 04:36:02;;;;;;;2.85;1.27;;;8.70;71.20;;;;;;2254280;59;21646;-79
2022/11/06 04:38:39;;;;;;;;;;;8.70;70.80;;;;;;2480768;55;21072;-79
2022/11/06 04:43:00;;;;;;;2.60;1.00;;;8.60;70.30;;;;;;2414961;55;20365;-80
2022/11/06 04:45:47;;;;;;;1.52;0.70;;;8.60;70.30;;;;;;2383883;55;21715;-79
2022/11/06 04:48:14;;;;;;;2.08;1.02;;;8.50;70.60;;;;;;2251719;59;21464;-79
2022/11/06 04:50:44;;;;;;;2.70;1.08;;;8.50;70.90;;;;;;2461503;55;21043;-79
2022/11/06 04:53:11;;;;;;;3.67;1.50;;;8.50;70.80;;;;;;2406460;55;21219;-80
2022/11/06 04:55:45;;;;;;;2.60;1.40;;;8.40;70.70;;;;;;2267701;55;21694;-80
2022/11/06 04:58:11;;;;;;;3.17;1.33;;;8.40;70.70;;;;;;2245357;59;21068;-79
2022/11/06 05:00:38;;;;;;;3.00;1.00;;;8.30;70.80;;;;;;2372798;55;21072;-79
2022/11/06 05:03:05;;;;;;;2.55;1.00;;;8.30;70.80;;;;;;2249474;59;21072;-79
2022/11/06 05:05:31;;;;;;;2.45;1.30;;;8.30;70.70;;;;;;2250292;55;21183;-79
2022/11/06 05:07:58;;;;;;;3.12;1.40;;;8.30;70.80;;;;;;2236052;59;21127;-80
2022/11/06 05:10:26;;;;;;;3.10;1.15;;;8.20;70.70;;;;;;2237644;59;21636;-78
2022/11/06 05:12:54;;;;;;;2.97;1.58;;;8.20;70.70;;;;;;2227338;59;21064;-79
2022/11/06 05:15:21;;;;;;;3.08;1.30;;;8.20;70.70;;;;;;2277211;55;21136;-79
2022/11/06 05:17:47;;;;;;;4.00;1.30;;;8.20;70.70;;;;;;2219095;59;21123;-78
2022/11/06 05:20:16;;;;;;;3.03;1.40;;;8.10;70.60;;;;;;2213797;55;21649;-80
2022/11/06 05:22:59;;;;;;;2.85;1.30;;;8.10;70.50;;;;;;2198403;59;21143;-78
2022/11/06 05:25:27;;;;;;;;;;;8.00;70.50;;;;;;2244284;55;21198;-78
2022/11/06 05:27:53;;;;;;;3.00;1.35;;;8.10;69.60;;;;;;2270974;55;20089;-78
2022/11/06 05:30:21;;;;;;;2.78;1.27;;;8.00;70.30;;;;;;2197234;55;22243;-79
2022/11/06 05:32:48;;;;;;;2.80;1.48;;;8.00;70.20;;;;;;2180533;59;21127;-77
2022/11/06 05:35:15;;;;;;;4.15;1.48;;;8.00;70.40;;;;;;2324077;55;21207;-79
2022/11/06 05:37:41;;;;;;;3.20;1.70;;;7.90;70.30;;;;;;2439529;55;22363;-78
2022/11/06 05:40:09;;;;;;;3.37;1.50;;;7.90;70.20;;;;;;2291856;55;22310;-79
2022/11/06 05:42:39;;;;;;;3.65;1.70;;;7.90;70.20;;;;;;2221768;55;21068;-78
2022/11/06 05:45:07;;;;;;;3.92;1.75;;;7.90;70.10;;;;;;2212542;59;21260;-78
2022/11/06 05:47:34;;;;;;;3.17;1.50;;;7.80;70.40;;;;;;2194738;57;21211;-78
2022/11/06 05:50:02;;;;;;;2.87;1.35;;;7.80;70.50;;;;;;2194974;59;21120;-78
2022/11/06 05:52:28;;;;;;;3.60;1.87;;;7.80;70.50;;;;;;2333812;55;21064;-79
2022/11/06 05:54:55;;;;;;;3.87;1.70;;;7.80;70.60;;;;;;2241964;55;21084;-79
2022/11/06 05:57:21;;;;;;;3.72;1.98;;;7.70;70.70;;;;;;2193592;55;22812;-78
2022/11/06 05:59:47;;;;;;;3.58;1.60;;;7.80;70.70;;;;;;2183424;55;21079;-79
2022/11/06 06:02:17;;;;;;;2.87;1.50;;;7.70;70.60;;;;;;2180025;55;21100;-79
2022/11/06 06:04:44;;;;;;;3.05;1.70;;;7.70;70.50;;;;;;2200329;55;21083;-78
2022/11/06 06:07:10;;;;;;;3.60;2.10;;;7.70;70.50;;;;;;2240243;55;22350;-78
2022/11/06 06:09:37;;;;;;;4.07;2.10;;;7.70;70.40;;;;;;2175354;59;21187;-79
2022/11/06 06:12:04;;;;;;;3.42;2.08;;;7.70;70.30;;;;;;2179404;55;21123;-78
2022/11/06 06:14:32;;;;;;;3.40;1.65;;;7.60;70.00;;;;;;2343336;55;22082;-78
2022/11/06 06:16:58;;;;;;;3.53;1.60;;;7.60;70.00;;;;;;2213714;59;22376;-78
2022/11/06 06:19:25;;;;;;;3.10;1.60;;;7.60;70.00;;;;;;2275298;55;21060;-78
2022/11/06 06:21:52;;;;;;;3.10;1.67;;;7.50;69.90;;;;;;2298167;55;21622;-78
2022/11/06 06:24:19;;;;;;;2.78;1.52;;;7.50;69.90;;;;;;2412835;55;21175;-78
2022/11/06 06:26:45;;;;;;;3.85;1.50;;;7.50;69.90;;;;;;2276325;55;21100;-78
2022/11/06 06:29:12;;;;;;;2.47;1.10;;;7.50;69.80;;;;;;2258421;59;21076;-78
2022/11/06 06:31:39;;;;;;;3.85;1.62;;;7.40;69.70;;;;;;2261246;59;21115;-79
2022/11/06 06:34:06;;;;;;;3.45;1.67;;;7.40;69.70;;;;;;2314232;55;21369;-78
2022/11/06 06:36:32;;;;;;;3.00;1.48;;;7.30;69.80;;;;;;2266086;59;21114;-79
2022/11/06 06:38:59;;;;;;;2.80;1.48;;;7.30;70.00;;;;;;2272468;55;21417;-79
2022/11/06 06:41:26;;;;;;;3.60;1.77;;;7.20;70.10;;;;;;2267495;57;21080;-79
2022/11/06 06:43:53;;;;;;;3.10;1.30;;;7.20;70.30;;;;;;2270549;55;21183;-79
2022/11/06 06:46:20;;;;;;;2.60;1.42;;;7.20;70.40;;;;;;2272847;55;22110;-78
2022/11/06 06:48:47;;;;;;;3.10;1.58;;;7.10;70.30;;;;;;2283216;55;21084;-79
2022/11/06 06:51:16;;;;;;;4.12;1.80;;;7.10;70.30;;;;;;2271778;55;21258;-78
2022/11/06 06:53:46;;;;;;;5.87;3.10;;;7.10;70.40;;;;;;2320735;55;21190;-79
2022/11/06 06:56:12;;;;;;;5.93;2.90;;;7.10;70.60;;;;;;2427086;55;21092;-79
2022/11/06 06:58:40;;;;;;;5.32;2.78;;;7.10;70.80;;;;;;2499152;55;21131;-79
2022/11/06 07:01:09;;;;;;;5.95;3.00;;;7.10;70.80;;;;;;2500316;55;21080;-79
2022/11/06 07:03:37;;;;;;;5.55;3.30;;;7.10;70.80;;;;;;2336126;55;21072;-79
2022/11/06 07:06:03;;;;;;;7.03;3.20;;;7.10;70.90;;;;;;2267609;59;21091;-79
2022/11/06 07:08:31;;;;;;;5.15;2.90;;;7.10;71.00;;;;;;2288353;55;21075;-79
2022/11/06 07:10:59;;;;;;;5.37;3.17;;;7.10;71.20;;;;;;2267347;59;21068;-79
2022/11/06 07:13:26;;;;;;;4.75;2.85;;;7.10;71.30;;;;;;2271215;55;21064;-79
2022/11/06 07:15:54;;;;;;;4.57;2.50;;;7.10;71.40;;;;;;2322945;55;21092;-78
2022/11/06 07:18:22;;;;;;;5.20;2.17;;;7.10;71.30;;;;;;2499809;55;21060;-79
2022/11/06 07:20:48;;;;;;;4.32;2.55;;;7.10;71.40;;;;;;2267438;59;21112;-79
2022/11/06 07:23:14;;;;;;;5.18;2.05;;;7.10;71.40;;;;;;2303670;55;21056;-79
2022/11/06 07:25:41;;;;;;;4.47;1.92;;;7.10;71.50;;;;;;2273247;55;21080;-79
2022/11/06 07:28:08;;;;;;;4.78;2.10;;;7.10;71.70;;;;;;2345801;55;21239;-79
2022/11/06 07:30:35;;;;;;;4.55;1.90;;;7.10;71.70;;;;;;2267838;55;21063;-79
2022/11/06 07:33:03;;;;;;;4.95;1.75;;;7.10;71.90;;;;;;2365054;55;21458;-79
2022/11/06 07:35:29;;;;;;;3.55;1.67;;;7.20;72.10;;;;;;2267031;59;21561;-79
2022/11/06 07:37:57;;;;;;;3.75;1.50;;;7.20;72.20;;;;;;2272958;55;21076;-79
2022/11/06 07:40:23;;;;;;;3.42;1.73;;;7.20;72.20;;;;;;2273899;55;21171;-79
2022/11/06 07:44:11;;;;;;;2.95;1.45;;;7.20;72.20;;;;;;2282444;55;21199;-79
2022/11/06 07:46:38;;;;;;;4.35;1.98;;;7.30;71.90;;;;;;2317891;55;21868;-79
2022/11/06 07:49:05;;;;;;;8.07;3.03;;;7.30;72.50;;;;;;2271457;55;21712;-79
2022/11/06 07:51:31;;;;;;;5.47;2.37;;;7.30;72.70;;;;;;2348452;55;21248;-79
2022/11/06 07:53:57;;;;;;;4.22;2.30;;;7.40;72.90;;;;;;2277877;55;21612;-79
2022/11/06 07:56:24;;;;;;;6.22;2.12;;;7.40;72.90;;;;;;2290271;55;21123;-79
2022/11/06 07:58:52;;;;;;;4.60;2.80;;;7.40;73.00;;;;;;2285751;55;21064;-79
2022/11/06 08:01:19;;;;;;;3.97;2.20;;;7.40;73.20;;;;;;2411407;55;21075;-79
2022/11/06 08:03:47;;;;;;;4.43;2.40;;;7.50;73.40;;;;;;2309951;55;21064;-79
2022/11/06 08:06:13;;;;;;;4.35;2.20;;;7.50;73.60;;;;;;2267438;59;21204;-79
2022/11/06 08:08:40;;;;;;;4.32;2.20;;;7.60;73.90;;;;;;2267284;59;21115;-79
2022/11/06 08:11:08;;;;;;;4.53;2.22;;;7.70;74.20;;;;;;2499573;55;21064;-79
2022/11/06 08:13:37;;;;;;;3.67;1.85;;;7.80;74.40;;;;;;2499509;55;21063;-79
2022/11/06 08:16:11;;;;;;;4.07;1.80;;;7.80;74.60;;;;;;2269113;55;22011;-79
2022/11/06 08:18:42;;;;;;;3.40;1.80;;;7.90;74.70;;;;;;2505126;55;21119;-79
2022/11/06 08:21:10;;;;;;;3.62;1.75;;;7.90;74.70;;;;;;2272654;59;21123;-79
2022/11/06 08:23:38;;;;;;;3.47;1.67;;;8.00;74.80;;;;;;2317618;55;21071;-79
2022/11/06 08:26:06;;;;;;;3.15;1.87;;;8.10;74.90;;;;;;2467052;55;21068;-79
2022/11/06 08:28:33;;;;;;;3.15;1.50;;;8.20;75.20;;;;;;2277013;55;21076;-80
2022/11/06 08:31:06;;;;;;;3.53;1.50;;;8.30;75.40;;;;;;2474677;55;21159;-80
2022/11/06 08:33:33;;;;;;;3.12;1.52;;;8.30;75.40;;;;;;2505592;55;21076;-79
2022/11/06 08:36:04;;;;;;;3.17;1.77;;;8.40;75.50;;;;;;2370633;55;21623;-80
2022/11/06 08:38:32;;;;;;;2.50;1.23;;;8.50;75.50;;;;;;2416204;55;21068;-79
2022/11/06 08:41:02;;;;;;;3.33;1.25;;;8.60;75.60;;;;;;2272494;59;21076;-79
2022/11/06 08:43:29;;;;;;;2.40;1.12;;;8.70;75.70;;;;;;2332939;55;21080;-79
2022/11/06 08:45:55;;;;;;;4.12;1.52;;;8.80;75.70;;;;;;2271666;59;22213;-78
2022/11/06 08:48:21;;;;;;;3.20;1.50;;;8.80;75.70;;;;;;2272506;59;21467;-79
2022/11/06 08:50:48;;;;;;;6.07;2.83;;;8.90;75.70;;;;;;2386476;55;21080;-79
2022/11/06 08:53:14;;;;;;;5.50;2.20;;;9.00;75.80;;;;;;2272324;59;21048;-79
2022/11/06 08:55:41;;;;;;;8.00;3.22;;;9.10;75.80;;;;;;2454097;55;21615;-79
2022/11/06 08:58:08;;;;;;;5.32;2.65;;;9.10;75.70;;;;;;2275981;55;22148;-79
2022/11/06 09:00:34;;;;;;;5.05;2.40;;;9.20;75.80;;;;;;2369134;55;21667;-79
2022/11/06 09:03:02;;;;;;;5.22;2.58;;;9.30;75.90;;;;;;2272018;59;21437;-79
2022/11/06 09:05:29;;;;;;;7.00;3.15;;;9.40;76.00;;;;;;2271523;59;21635;-79
2022/11/06 09:07:58;;;;;;;4.95;2.17;;;9.40;76.00;;;;;;2388735;55;21471;-79
2022/11/06 09:10:25;;;;;;;5.45;2.42;;;9.50;76.10;;;;;;2272293;59;21757;-79
2022/11/06 09:12:52;;;;;;;6.10;2.90;;;9.60;76.20;;;;;;2318716;55;21068;-79
2022/11/06 09:15:21;;;;;;;3.83;1.73;;;9.70;76.30;;;;;;2271605;59;21669;-79
2022/11/06 09:17:49;;;;;;;4.72;1.80;;;9.80;76.40;;;;;;2504281;55;21099;-79
2022/11/06 09:20:17;;;;;;;3.30;1.62;;;9.90;76.50;;;;;;2407085;54;21151;-80
2022/11/06 09:22:43;;;;;;;3.90;1.70;;;10.00;75.40;;;;;;2307928;55;21206;-79
2022/11/06 09:25:09;;;;;;;3.65;1.83;;;10.00;75.30;;;;;;2272305;59;21068;-79
2022/11/06 09:28:09;;;;;;;5.43;1.90;;;10.10;75.10;;;;;;2271881;57;21610;-79
2022/11/06 09:30:36;;;;;;;3.60;2.08;;;10.20;74.30;;;;;;2271797;59;21242;-79
2022/11/06 09:33:02;;;;;;;4.00;1.50;;;10.30;74.80;;;;;;2405087;55;21924;-79
2022/11/06 09:35:31;;;;;;;3.80;1.75;;;10.30;74.70;;;;;;2271967;59;21072;-78
2022/11/06 09:38:04;;;;;;;4.18;1.85;;;10.40;74.60;;;;;;2503665;55;21913;-80
2022/11/06 09:40:42;;;;;;;3.80;2.10;;;10.40;74.40;;;;;;2438202;55;21068;-79
2022/11/06 09:43:37;;;;;;;4.90;1.60;;;10.50;74.20;;;;;;2272056;57;21621;-79
2022/11/06 09:46:29;;;;;;;3.00;1.40;;;10.60;74.00;;;;;;2348931;54;21120;-79
2022/11/06 09:49:05;;;;;;;2.95;1.58;;;10.60;74.10;;;;;;2488482;55;21651;-79
2022/11/06 09:51:47;;;;;;;3.55;1.60;;;10.70;74.30;;;;;;2346430;55;21580;-80
2022/11/06 09:55:00;;;;;;;3.72;1.87;;;10.70;74.20;;;;;;2406781;55;21064;-79
2022/11/06 09:58:56;;;;;;;3.12;1.55;;;10.80;73.70;;;;;;2272040;59;21460;-79
2022/11/06 10:01:25;;;;;;;3.35;1.55;;;10.80;73.40;;;;;;2504306;55;21354;-80
2022/11/06 10:03:57;;;;;;;4.03;1.95;;;10.90;74.50;;;;;;2465440;55;21064;-80
2022/11/06 10:06:24;;;;;;;4.75;2.15;;;10.90;74.70;;;;;;2430808;55;21124;-79
2022/11/06 10:08:51;;;;;;;4.70;1.85;;;11.00;75.60;;;;;;2399219;55;21068;-80
2022/11/06 10:16:30;;;;;;;3.20;1.70;;;11.10;74.80;;;;;;2272448;59;21135;-80
2022/11/06 10:19:14;;;;;;;;;;;11.10;74.50;;;;;;2274817;59;21119;-79
2022/11/06 10:21:47;;;;;;;1.92;0.88;;;11.30;73.60;;;;;;2325364;55;20096;-79
2022/11/06 10:24:22;;;;;;;2.50;1.37;;;11.40;74.40;;;;;;2376272;55;21092;-80
2022/11/06 10:26:56;;;;;;;2.78;1.40;;;11.40;74.40;;;;;;2417877;55;21092;-79
2022/11/06 10:30:56;;;;;;;2.47;1.27;;;11.40;74.60;;;;;;2358650;55;21620;-80
2022/11/06 10:34:12;;;;;;;2.78;1.25;;;11.50;74.50;;;;;;2363400;55;21183;-79
2022/11/06 10:41:44;;;;;;;3.75;1.90;;;11.60;73.70;;;;;;2470827;55;21052;-79
2022/11/06 10:44:25;;;;;;;2.58;1.27;;;11.80;73.80;;;;;;2368096;55;21718;-80
2022/11/06 10:47:00;;;;;;;2.70;1.30;;;11.80;74.70;;;;;;2409673;55;21210;-79
2022/11/06 10:49:44;;;;;;;2.72;1.40;;;11.90;74.90;;;;;;2346900;55;21766;-80
2022/11/06 10:52:44;;;;;;;3.70;1.73;;;11.90;74.90;;;;;;2271929;59;21119;-79
2022/11/06 10:58:06;;;;;;;3.37;1.80;;;12.00;75.00;;;;;;2297795;55;21111;-79
2022/11/06 11:00:33;;;;;;;3.08;1.30;;;12.10;75.00;;;;;;2272343;59;21239;-80
2022/11/06 11:03:01;;;;;;;3.00;1.58;;;12.30;75.60;;;;;;2271602;59;21698;-79
2022/11/06 11:05:39;;;;;;;3.45;1.73;;;12.30;75.60;;;;;;2272060;59;21715;-80
2022/11/06 11:08:05;;;;;;;3.08;1.58;;;12.40;75.50;;;;;;2380313;55;21096;-79
2022/11/06 11:10:33;;;;;;;2.50;1.40;;;12.50;75.50;;;;;;2341053;55;21869;-80
2022/11/06 11:13:01;;;;;;;3.25;1.90;;;12.60;75.40;;;;;;2305155;55;21535;-80
2022/11/06 11:15:44;;;;;;;3.45;1.77;;;12.60;75.20;;;;;;2272384;59;21108;-80
2022/11/06 11:18:33;;;;;;;3.70;1.65;;;12.70;74.80;;;;;;2442722;55;21672;-80
2022/11/06 11:21:22;;;;;;;2.85;1.67;;;12.80;74.30;;;;;;2404239;55;21382;-80
2022/11/06 11:24:09;;;;;;;3.30;1.92;;;12.80;74.30;;;;;;2413122;55;21100;-80
2022/11/06 11:27:12;;;;;;;3.58;1.87;;;12.90;74.30;;;;;;2271994;59;21092;-80
2022/11/06 11:29:46;;;;;;;2.58;1.42;;;13.00;74.60;;;;;;2378564;55;21652;-80
2022/11/06 11:32:13;;;;;;;2.95;1.50;;;13.00;74.70;;;;;;2352210;55;21606;-79
2022/11/06 11:34:44;;;;;;;3.22;1.60;;;13.00;74.90;;;;;;2339917;55;21664;-80
2022/11/06 11:37:30;;;;;;;3.33;1.37;;;13.10;74.80;;;;;;2285639;55;21154;-80
2022/11/06 11:40:35;;;;;;;3.10;1.40;;;13.20;74.10;;;;;;2336675;55;21088;-80
2022/11/06 11:43:22;;;;;;;3.90;1.70;;;13.30;73.80;;;;;;2276213;55;21568;-80
2022/11/06 11:52:37;;;;;;;3.03;1.30;;;13.30;73.90;;;;;;2270401;59;21068;-80
2022/11/06 11:55:04;;;;;;;5.12;1.20;;;13.60;73.50;;;;;;2423540;55;21569;-80
2022/11/06 11:57:30;;;;;;;2.37;1.15;;;13.60;74.30;;;;;;2355500;55;21096;-79
2022/11/06 11:59:59;;;;;;;3.60;1.30;;;13.60;74.20;;;;;;2402594;55;21969;-80
2022/11/06 12:02:39;;;;;;;4.12;1.58;;;13.60;74.20;;;;;;2290953;55;21064;-80
2022/11/06 12:05:11;;;;;;;3.42;1.25;;;13.70;74.30;;;;;;2270589;57;21084;-80
2022/11/06 12:07:40;;;;;;;3.55;1.60;;;13.70;74.00;;;;;;2286738;55;21599;-80
2022/11/06 12:11:10;;;;;;;2.95;1.62;;;13.70;73.70;;;;;;2340035;55;21628;-79
2022/11/06 12:13:37;;;;;;;2.95;1.40;;;13.80;72.30;;;;;;2345681;55;21048;-79
2022/11/06 12:16:05;;;;;;;4.45;1.45;;;13.80;73.70;;;;;;2314803;55;22032;-80
2022/11/06 12:18:45;;;;;;;3.58;1.33;;;13.80;73.60;;;;;;2270605;59;21072;-80
2022/11/06 12:23:04;;;;;;;3.50;1.30;;;13.80;73.30;;;;;;2270860;56;21068;-79
2022/11/06 12:25:39;;;;;;;4.28;1.80;;;13.90;73.50;;;;;;2307317;55;21151;-79
2022/11/06 12:28:09;;;;;;;4.82;2.05;;;13.90;73.10;;;;;;2356652;55;21581;-80
2022/11/06 12:30:35;;;;;;;14.85;5.90;;;13.90;73.40;;;;;;2392510;55;22112;-80
2022/11/06 12:33:14;;;;;;;10.85;4.70;;;14.00;73.50;;;;;;2271058;59;21355;-80
2022/11/06 12:35:52;;;;;;;6.55;3.12;;;14.00;72.70;;;;;;2333895;55;21709;-80
2022/11/06 12:38:43;;;;;;;5.95;2.60;;;14.00;72.70;;;;;;2281568;55;21736;-79
2022/11/06 12:41:29;;;;;;;4.65;2.50;;;14.00;72.20;;;;;;2297057;54;21135;-79
2022/11/06 12:43:55;;;;;;;5.60;2.58;;;14.10;72.80;;;;;;2414773;55;21515;-79
2022/11/06 12:47:54;;;;;;;4.72;2.50;;;14.10;73.00;;;;;;2377426;55;21068;-80
2022/11/06 12:52:56;;;;;;;3.60;1.92;;;14.10;71.80;;;;;;2270828;59;21391;-80
2022/11/06 13:00:15;;;;;;;3.17;1.52;;;14.10;71.60;;;;;;2455423;55;21523;-80
2022/11/06 13:08:05;;;;;;;3.00;1.45;;;14.20;71.50;;;;;;2325939;55;21075;-79
2022/11/06 13:13:14;;;;;;;3.08;1.42;;;14.20;71.40;;;;;;2503425;55;21675;-80
2022/11/06 13:20:43;;;;;;;3.55;1.62;;;14.20;71.10;;;;;;2335304;55;21622;-80
2022/11/06 13:23:29;;;;;;;13.48;6.78;;;14.30;71.20;;;;;;2278686;55;21063;-80
2022/11/06 13:26:06;;;;;;;10.77;5.78;;;14.20;71.60;;;;;;2270400;59;21092;-80
2022/11/06 13:28:43;;;;;;;6.75;3.75;;;14.20;72.30;;;;;;2270584;59;21613;-79
2022/11/06 13:31:10;;;;;;;6.85;3.00;;;14.20;72.40;;;;;;2273953;55;21143;-79
2022/11/06 13:33:50;;;;;;;4.55;2.75;;;14.20;72.50;;;;;;2275174;55;21574;-80
2022/11/06 13:36:16;;;;;;;4.85;2.83;;;14.20;72.20;;;;;;2383762;55;21163;-80
2022/11/06 13:38:53;;;;;;;4.35;2.72;;;14.20;72.70;;;;;;2279740;55;21059;-79
2022/11/06 13:41:23;;;;;;;4.32;2.55;;;14.30;72.50;;;;;;2269981;59;21466;-80
2022/11/06 13:44:06;;;;;;;4.22;2.40;;;14.20;72.70;;;;;;2301661;55;21971;-80
2022/11/06 13:47:18;;;;;;;3.83;2.12;;;14.30;72.60;;;;;;2270536;59;21616;-80
2022/11/06 13:50:09;;;;;;;3.60;2.05;;;14.30;71.40;;;;;;2275288;55;21107;-80
2022/11/06 13:52:50;;;;;;;7.22;3.53;;;14.30;72.20;;;;;;2354187;55;21491;-79
2022/11/06 13:55:54;;;;;;;5.55;3.33;;;14.30;72.40;;;;;;2363233;55;21220;-78
2022/11/06 13:58:31;;;;;;;7.75;3.87;;;14.30;72.10;;;;;;2270540;59;21084;-80
2022/11/06 14:01:28;;;;;;;6.78;3.22;;;14.40;73.00;;;;;;2270340;59;21132;-80
2022/11/06 14:04:14;;;;;;;5.62;2.72;;;14.40;72.80;;;;;;2324761;55;21052;-80
2022/11/06 14:06:41;;;;;;;5.12;2.65;;;14.50;72.80;;;;;;2316154;55;21171;-78
2022/11/06 14:09:16;;;;;;;4.12;2.45;;;14.50;73.20;;;;;;2270222;59;21211;-78
2022/11/06 14:11:42;;;;;;;5.05;2.60;;;14.50;72.60;;;;;;2270396;59;21072;-78
2022/11/06 14:14:25;;;;;;;4.45;2.50;;;14.50;73.00;;;;;;2270137;59;21060;-80
2022/11/06 14:18:51;;;;;;;5.07;2.25;;;14.50;72.00;;;;;;2271920;55;21195;-78
2022/11/06 14:21:55;;;;;;;4.20;2.20;;;14.60;71.40;;;;;;2270578;57;21502;-78
2022/11/06 14:24:40;;;;;;;4.97;2.50;;;14.60;71.30;;;;;;2283070;55;21064;-78
2022/11/06 14:28:13;;;;;;;3.92;1.95;;;14.60;71.70;;;;;;2270064;59;21176;-78
2022/11/06 14:30:41;;;;;;;5.32;2.03;;;14.60;72.00;;;;;;2270513;59;21076;-78
2022/11/06 14:33:57;;;;;;;3.08;1.65;;;14.60;72.40;;;;;;2345660;55;21706;-79
2022/11/06 14:36:32;;;;;;;3.65;2.03;;;14.60;71.80;;;;;;2280385;55;21084;-78